Time;durP1;ratioP1;P1;durP2;ratioP2;P2;SDS_P1;SDS_P2;PMS_P1;PMS_P2;Temp;Humidity;BMP_temperature;BMP_pressure;BME280_temperature;BME280_humidity;BME280_pressure;Samples;Min_cycle;Max_cycle;Signal;HPM_P1;HPM_P2
2022/12/08 00:01:46;;;;;;;37.72;20.85;;;2.60;99.90;;;;;;4723226;28;9999860;-74
2022/12/08 00:04:11;;;;;;;36.30;21.35;;;2.50;99.90;;;;;;5075318;28;20563;-74
2022/12/08 00:09:38;;;;;;;36.78;21.83;;;2.50;99.90;;;;;;5070806;28;20039;-74
2022/12/08 00:12:10;;;;;;;37.67;20.40;;;2.40;99.90;;;;;;5075358;28;20122;-74
2022/12/08 00:14:39;;;;;;;36.58;20.67;;;2.40;99.90;;;;;;5069660;28;20391;-74
2022/12/08 00:17:06;;;;;;;36.58;21.40;;;2.40;99.90;;;;;;5075975;28;20035;-74
2022/12/08 00:19:32;;;;;;;37.78;22.00;;;2.30;99.90;;;;;;5077300;28;20028;-74
2022/12/08 00:21:58;;;;;;;39.42;22.23;;;2.30;99.90;;;;;;5080926;28;20043;-74
2022/12/08 00:24:29;;;;;;;40.35;22.40;;;2.30;99.90;;;;;;5074690;28;20032;-74
2022/12/08 00:26:54;;;;;;;40.53;22.35;;;2.30;99.90;;;;;;5077694;28;20255;-74
2022/12/08 00:29:20;;;;;;;35.70;21.55;;;2.30;99.90;;;;;;5084041;28;20012;-74
2022/12/08 00:31:46;;;;;;;38.13;21.85;;;2.40;99.90;;;;;;5077672;28;20035;-74
2022/12/08 00:34:13;;;;;;;36.20;21.80;;;2.40;99.90;;;;;;5077197;28;20726;-74
2022/12/08 00:36:39;;;;;;;39.50;22.85;;;2.30;99.90;;;;;;5072189;28;20437;-75
2022/12/08 00:39:05;;;;;;;41.33;23.20;;;2.30;99.90;;;;;;5077022;28;20032;-74
2022/12/08 00:44:17;;;;;;;39.35;22.00;;;2.30;99.90;;;;;;5070734;28;20054;-75
2022/12/08 00:46:44;;;;;;;37.05;22.20;;;2.30;99.90;;;;;;5077974;28;20492;-75
2022/12/08 00:49:10;;;;;;;38.45;21.40;;;2.30;99.90;;;;;;5075667;28;20423;-74
2022/12/08 00:51:36;;;;;;;37.83;21.45;;;2.30;99.90;;;;;;5081437;28;20042;-74
2022/12/08 00:54:03;;;;;;;39.08;21.55;;;2.30;99.90;;;;;;5078408;28;20055;-74
2022/12/08 00:56:30;;;;;;;40.05;22.15;;;2.30;99.90;;;;;;5077746;28;20028;-74
2022/12/08 00:58:55;;;;;;;37.65;21.65;;;2.30;99.90;;;;;;5075307;28;20032;-74
2022/12/08 01:01:21;;;;;;;41.45;22.20;;;2.20;99.90;;;;;;5076973;28;20039;-74
2022/12/08 01:03:47;;;;;;;38.35;21.70;;;2.30;99.90;;;;;;5075753;28;20086;-74
2022/12/08 01:06:12;;;;;;;40.63;22.35;;;2.30;99.90;;;;;;5078120;28;20103;-74
2022/12/08 01:08:39;;;;;;;36.20;21.95;;;2.30;99.90;;;;;;5077808;28;20390;-74
2022/12/08 01:11:06;;;;;;;38.30;20.77;;;2.30;99.90;;;;;;5070519;28;20056;-74
2022/12/08 01:13:33;;;;;;;37.15;20.90;;;2.30;99.90;;;;;;5063433;28;20437;-74
2022/12/08 01:15:58;;;;;;;36.05;21.23;;;2.30;99.90;;;;;;5068149;28;20030;-74
2022/12/08 01:18:26;;;;;;;36.10;21.08;;;2.30;99.90;;;;;;5075801;28;20033;-74
2022/12/08 01:20:51;;;;;;;33.53;20.65;;;2.20;99.90;;;;;;5081470;28;20444;-74
2022/12/08 01:23:17;;;;;;;35.53;20.08;;;2.30;99.90;;;;;;5074688;28;20050;-74
2022/12/08 01:25:43;;;;;;;35.13;20.83;;;2.30;99.90;;;;;;5078338;28;20110;-74
2022/12/08 01:28:08;;;;;;;31.27;20.35;;;2.30;99.90;;;;;;5077691;28;20076;-74
2022/12/08 01:30:37;;;;;;;35.80;20.95;;;2.30;99.90;;;;;;5081961;28;20024;-74
2022/12/08 01:33:02;;;;;;;34.60;21.25;;;2.20;99.90;;;;;;5075710;28;20059;-74
2022/12/08 01:35:28;;;;;;;31.65;20.13;;;2.30;99.90;;;;;;5081260;28;20513;-74
2022/12/08 01:37:54;;;;;;;33.55;21.48;;;2.30;99.90;;;;;;5083880;28;20047;-74
2022/12/08 01:40:19;;;;;;;35.95;21.10;;;2.30;99.90;;;;;;5077602;28;20040;-74
2022/12/08 01:42:45;;;;;;;32.40;19.60;;;2.30;99.90;;;;;;5077693;28;20478;-74
2022/12/08 01:45:28;;;;;;;34.33;20.40;;;2.30;99.90;;;;;;5070988;28;20096;-74
2022/12/08 01:47:58;;;;;;;34.60;19.60;;;2.30;99.90;;;;;;5078158;28;20503;-74
2022/12/08 01:50:24;;;;;;;33.30;19.63;;;2.30;99.90;;;;;;5077762;28;20508;-74
2022/12/08 01:52:56;;;;;;;33.13;19.25;;;2.30;99.90;;;;;;5077576;28;20115;-74
2022/12/08 01:55:31;;;;;;;31.45;19.42;;;2.30;99.90;;;;;;5074621;28;20050;-74
2022/12/08 01:58:04;;;;;;;31.70;19.25;;;2.30;99.90;;;;;;5078332;28;20032;-74
2022/12/08 02:00:30;;;;;;;33.50;19.88;;;2.30;99.90;;;;;;5070293;28;20555;-74
2022/12/08 02:03:03;;;;;;;31.70;19.73;;;2.30;99.90;;;;;;5073417;28;20032;-74
2022/12/08 02:05:38;;;;;;;38.08;20.08;;;2.30;99.90;;;;;;5070778;28;20379;-74
2022/12/08 02:08:08;;;;;;;33.30;18.73;;;2.30;99.90;;;;;;5079321;28;20549;-74
2022/12/08 02:10:36;;;;;;;34.75;19.60;;;2.30;99.90;;;;;;5081669;28;21325;-74
2022/12/08 02:13:03;;;;;;;32.83;18.77;;;2.30;99.90;;;;;;5071204;28;20040;-74
2022/12/08 02:15:44;;;;;;;32.95;19.40;;;2.30;99.90;;;;;;5078244;28;20551;-74
2022/12/08 02:18:18;;;;;;;32.65;19.42;;;2.30;99.90;;;;;;5081980;28;20188;-74
2022/12/08 02:21:02;;;;;;;30.45;19.13;;;2.30;99.90;;;;;;5081846;28;20424;-75
2022/12/08 02:23:51;;;;;;;;;;;2.30;99.90;;;;;;5077740;28;20057;-74
2022/12/08 02:26:42;;;;;;;31.70;18.45;;;2.30;99.90;;;;;;5078588;28;20383;-73
2022/12/08 02:29:43;;;;;;;32.90;18.58;;;2.30;99.90;;;;;;5081256;28;20031;-74
2022/12/08 02:32:27;;;;;;;33.55;18.40;;;2.30;99.90;;;;;;5079583;28;20119;-74
2022/12/08 02:35:11;;;;;;;35.17;19.67;;;2.30;99.90;;;;;;5072402;28;20035;-73
2022/12/08 02:37:45;;;;;;;30.58;18.52;;;2.30;99.90;;;;;;5081715;28;20504;-74
2022/12/08 02:40:57;;;;;;;31.42;19.08;;;2.30;99.90;;;;;;5074742;28;20042;-74
2022/12/08 02:43:39;;;;;;;34.35;19.25;;;2.30;99.90;;;;;;5002672;28;20516;-74
2022/12/08 02:46:09;;;;;;;30.33;18.60;;;2.30;99.90;;;;;;5076988;28;20102;-75
2022/12/08 02:48:35;;;;;;;35.13;19.75;;;2.30;99.90;;;;;;5081952;28;20039;-74
2022/12/08 02:51:01;;;;;;;31.63;18.35;;;2.30;99.90;;;;;;5071257;28;20039;-74
2022/12/08 02:53:30;;;;;;;32.42;18.60;;;2.30;99.90;;;;;;5075583;28;20027;-74
2022/12/08 02:56:36;;;;;;;30.98;19.45;;;2.30;99.90;;;;;;5075447;28;20043;-73
2022/12/08 02:59:40;;;;;;;30.63;18.33;;;2.30;99.90;;;;;;5077798;28;20031;-74
2022/12/08 03:02:30;;;;;;;21.85;13.90;;;2.30;99.90;;;;;;5077225;28;20424;-74
2022/12/08 03:05:11;;;;;;;30.88;17.98;;;2.30;99.90;;;;;;5071710;28;20722;-74
2022/12/08 03:07:45;;;;;;;32.10;18.55;;;2.30;99.90;;;;;;5081440;28;20024;-74
2022/12/08 03:10:14;;;;;;;31.00;18.67;;;2.30;99.90;;;;;;5077019;28;20021;-74
2022/12/08 03:12:49;;;;;;;30.73;19.02;;;2.30;99.90;;;;;;5081218;28;20115;-74
2022/12/08 03:15:18;;;;;;;30.48;19.35;;;2.20;99.90;;;;;;5076515;28;20817;-74
2022/12/08 03:17:49;;;;;;;31.60;18.63;;;2.20;99.90;;;;;;5081029;28;20032;-74
2022/12/08 03:20:20;;;;;;;28.48;18.58;;;2.20;99.90;;;;;;5078951;28;20051;-74
2022/12/08 03:22:47;;;;;;;31.48;18.92;;;2.20;99.90;;;;;;5079034;28;20027;-74
2022/12/08 03:25:15;;;;;;;31.77;18.88;;;2.10;99.90;;;;;;5080417;28;20028;-74
2022/12/08 03:27:41;;;;;;;31.67;18.60;;;2.10;99.90;;;;;;5087378;28;20024;-74
2022/12/08 03:30:08;;;;;;;33.33;19.00;;;2.10;99.90;;;;;;5082288;28;20027;-74
2022/12/08 03:32:46;;;;;;;32.95;18.67;;;2.10;99.90;;;;;;5076892;28;20040;-74
2022/12/08 03:35:15;;;;;;;31.85;18.58;;;2.10;99.90;;;;;;5073210;28;20202;-74
2022/12/08 03:37:41;;;;;;;31.48;19.08;;;2.10;99.90;;;;;;5081356;28;20039;-74
2022/12/08 03:40:11;;;;;;;33.35;19.58;;;2.10;99.90;;;;;;5087024;28;20030;-74
2022/12/08 03:42:37;;;;;;;36.08;19.27;;;2.10;99.90;;;;;;5083070;28;20493;-74
2022/12/08 03:45:03;;;;;;;33.97;19.27;;;2.20;99.90;;;;;;5076438;28;20115;-74
2022/12/08 03:47:29;;;;;;;36.55;19.88;;;2.20;99.90;;;;;;5070273;28;20443;-74
2022/12/08 03:49:55;;;;;;;30.08;18.67;;;2.20;99.90;;;;;;5074975;28;20028;-74
2022/12/08 03:52:20;;;;;;;33.97;18.95;;;2.30;99.90;;;;;;5074762;28;20074;-73
2022/12/08 03:54:46;;;;;;;33.10;19.63;;;2.30;99.90;;;;;;5079284;28;20086;-74
2022/12/08 03:57:12;;;;;;;34.25;19.33;;;2.30;99.90;;;;;;5078681;28;20024;-74
2022/12/08 03:59:38;;;;;;;32.65;19.50;;;2.30;99.90;;;;;;5083922;28;20031;-74
2022/12/08 04:02:04;;;;;;;34.75;19.55;;;2.40;99.90;;;;;;5080572;28;20300;-74
2022/12/08 04:04:30;;;;;;;33.08;19.95;;;2.30;99.90;;;;;;5065518;28;20131;-74
2022/12/08 04:06:56;;;;;;;31.70;18.30;;;2.40;99.90;;;;;;5081241;28;20358;-74
2022/12/08 04:09:22;;;;;;;34.03;18.80;;;2.40;99.90;;;;;;5081204;28;20520;-74
2022/12/08 04:11:47;;;;;;;38.00;19.98;;;2.40;99.90;;;;;;5074087;28;20024;-75
2022/12/08 04:14:13;;;;;;;34.25;19.80;;;2.40;99.90;;;;;;5082952;28;20024;-74
2022/12/08 04:16:39;;;;;;;34.17;20.38;;;2.40;99.90;;;;;;5080556;28;20217;-74
2022/12/08 04:19:05;;;;;;;35.35;20.70;;;2.40;99.90;;;;;;5082666;28;20050;-74
2022/12/08 04:21:31;;;;;;;37.00;21.50;;;2.40;99.90;;;;;;5083851;28;20097;-74
2022/12/08 04:23:56;;;;;;;34.83;20.45;;;2.40;99.90;;;;;;5084123;28;20040;-75
2022/12/08 04:26:22;;;;;;;36.40;20.67;;;2.40;99.90;;;;;;5085295;28;20551;-74
2022/12/08 04:28:48;;;;;;;38.50;20.67;;;2.40;99.90;;;;;;5080889;28;20020;-74
2022/12/08 04:31:14;;;;;;;33.85;19.95;;;2.40;99.90;;;;;;5081425;28;20545;-75
2022/12/08 04:33:39;;;;;;;36.63;20.65;;;2.40;99.90;;;;;;5084458;28;20501;-74
2022/12/08 04:36:06;;;;;;;33.80;21.33;;;2.40;99.90;;;;;;5076124;28;20470;-74
2022/12/08 04:38:32;;;;;;;37.65;20.40;;;2.40;99.90;;;;;;5078724;28;20040;-75
2022/12/08 04:40:58;;;;;;;36.67;20.95;;;2.40;99.90;;;;;;5077587;28;20529;-75
2022/12/08 04:43:24;;;;;;;39.50;22.55;;;2.40;99.90;;;;;;5076503;28;20032;-75
2022/12/08 04:45:49;;;;;;;39.10;21.45;;;2.40;99.90;;;;;;5066521;28;20028;-74
2022/12/08 04:48:15;;;;;;;42.35;23.33;;;2.40;99.90;;;;;;5053015;28;20020;-75
2022/12/08 04:50:43;;;;;;;39.63;22.33;;;2.40;99.90;;;;;;5059250;28;20021;-74
2022/12/08 04:53:10;;;;;;;45.65;23.70;;;2.40;99.90;;;;;;5054339;28;20029;-74
2022/12/08 04:55:43;;;;;;;45.72;23.02;;;2.40;99.90;;;;;;5053658;28;20033;-73
2022/12/08 04:58:13;;;;;;;43.38;23.17;;;2.30;99.90;;;;;;5060140;28;20043;-74
2022/12/08 05:00:39;;;;;;;43.92;23.48;;;2.40;99.90;;;;;;5059453;28;20040;-74
2022/12/08 05:03:05;;;;;;;40.72;23.38;;;2.40;99.90;;;;;;5062598;28;20033;-74
2022/12/08 05:05:31;;;;;;;46.63;25.33;;;2.40;99.90;;;;;;5049169;28;20154;-74
2022/12/08 05:07:56;;;;;;;41.95;24.00;;;2.40;99.90;;;;;;5057197;28;20513;-74
2022/12/08 05:10:22;;;;;;;44.28;23.17;;;2.40;99.90;;;;;;5060773;28;20041;-74
2022/12/08 05:12:48;;;;;;;47.65;24.85;;;2.40;99.90;;;;;;5058262;28;20036;-74
2022/12/08 05:15:13;;;;;;;47.88;25.58;;;2.50;99.90;;;;;;5060841;28;20530;-74
2022/12/08 05:17:39;;;;;;;43.17;23.67;;;2.40;99.90;;;;;;5059185;28;20036;-74
2022/12/08 05:20:05;;;;;;;42.47;23.75;;;2.50;99.90;;;;;;5065163;28;20766;-74
2022/12/08 05:22:31;;;;;;;41.05;23.88;;;2.50;99.90;;;;;;5058298;28;20037;-74
2022/12/08 05:24:56;;;;;;;43.53;24.27;;;2.50;99.90;;;;;;5065701;28;20266;-74
2022/12/08 05:27:22;;;;;;;42.38;23.02;;;2.50;99.90;;;;;;5054563;28;20047;-74
2022/12/08 05:29:49;;;;;;;36.67;22.15;;;2.50;99.90;;;;;;5064226;28;20028;-74
2022/12/08 05:32:15;;;;;;;39.45;23.35;;;2.50;99.90;;;;;;5058182;28;20036;-74
2022/12/08 05:34:40;;;;;;;41.05;23.20;;;2.50;99.90;;;;;;5059917;28;20240;-74
2022/12/08 05:37:06;;;;;;;39.55;23.20;;;2.50;99.90;;;;;;5057703;28;20482;-74
2022/12/08 05:39:31;;;;;;;41.70;23.38;;;2.50;99.90;;;;;;5058884;28;20024;-74
2022/12/08 05:41:58;;;;;;;39.50;22.35;;;2.50;99.90;;;;;;5054670;28;20025;-74
2022/12/08 05:44:24;;;;;;;41.92;22.83;;;2.50;99.90;;;;;;5070952;28;20036;-74
2022/12/08 05:46:50;;;;;;;42.08;22.20;;;2.50;99.90;;;;;;5083715;28;20056;-74
2022/12/08 05:49:16;;;;;;;37.83;21.98;;;2.50;99.90;;;;;;5077287;28;20107;-74
2022/12/08 05:51:41;;;;;;;38.67;21.63;;;2.50;99.90;;;;;;5081099;28;20028;-74
2022/12/08 05:54:07;;;;;;;38.40;21.58;;;2.50;99.90;;;;;;5073570;28;20025;-74
2022/12/08 05:56:33;;;;;;;37.90;21.15;;;2.50;99.90;;;;;;5083206;28;20101;-74
2022/12/08 05:58:58;;;;;;;35.67;20.63;;;2.50;99.90;;;;;;5078193;28;20028;-75
2022/12/08 06:01:30;;;;;;;35.45;21.23;;;2.60;99.90;;;;;;5074717;28;20032;-74
2022/12/08 06:03:58;;;;;;;35.67;16.48;;;2.60;99.90;;;;;;5076490;28;20127;-74
2022/12/08 06:06:23;;;;;;;37.33;20.35;;;2.60;99.90;;;;;;5072835;28;20541;-74
2022/12/08 06:08:49;;;;;;;35.00;19.83;;;2.60;99.90;;;;;;5073719;28;20058;-74
2022/12/08 06:11:23;;;;;;;32.55;18.45;;;2.60;99.90;;;;;;5073729;28;20021;-74
2022/12/08 06:13:50;;;;;;;36.85;20.55;;;2.60;99.90;;;;;;5068985;28;20024;-74
2022/12/08 06:16:16;;;;;;;35.70;19.60;;;2.60;99.90;;;;;;5075024;28;22544;-74
2022/12/08 06:18:42;;;;;;;33.30;18.55;;;2.60;99.90;;;;;;5082284;28;20027;-74
2022/12/08 06:21:10;;;;;;;34.35;18.98;;;2.70;99.90;;;;;;5080117;28;20024;-74
2022/12/08 06:23:37;;;;;;;33.20;18.23;;;2.70;99.90;;;;;;5077841;28;20105;-74
2022/12/08 06:26:07;;;;;;;36.03;18.27;;;2.70;99.90;;;;;;5076008;28;20020;-74
2022/12/08 06:28:34;;;;;;;33.67;18.15;;;2.70;99.90;;;;;;5080420;28;20032;-74
2022/12/08 06:31:06;;;;;;;29.83;17.65;;;2.70;99.90;;;;;;5082564;28;20036;-74
2022/12/08 06:33:32;;;;;;;32.20;18.40;;;2.70;99.90;;;;;;5076293;28;20272;-73
2022/12/08 06:35:58;;;;;;;31.10;18.40;;;2.70;99.90;;;;;;5084144;28;20534;-74
2022/12/08 06:38:23;;;;;;;30.67;17.50;;;2.80;99.90;;;;;;5080372;28;20032;-74
2022/12/08 06:40:53;;;;;;;27.70;17.48;;;;;;;;;;5079096;28;20035;-74
2022/12/08 06:43:19;;;;;;;28.48;16.83;;;;;;;;;;5075699;28;20028;-73
2022/12/08 06:45:45;;;;;;;34.63;17.40;;;;;;;;;;5077946;28;20020;-74
2022/12/08 06:48:11;;;;;;;30.38;17.30;;;2.90;99.90;;;;;;5068472;28;20556;-74
2022/12/08 06:50:36;;;;;;;28.27;17.48;;;2.80;99.90;;;;;;5076777;28;20090;-74
2022/12/08 06:53:02;;;;;;;28.67;17.80;;;2.80;99.90;;;;;;5072393;28;20034;-74
2022/12/08 06:55:28;;;;;;;33.10;18.45;;;2.80;99.90;;;;;;5081921;28;20038;-74
2022/12/08 06:57:53;;;;;;;28.65;16.92;;;2.80;99.90;;;;;;5076130;28;20023;-74
2022/12/08 07:00:19;;;;;;;26.92;16.00;;;2.80;99.90;;;;;;5078239;28;20410;-74
2022/12/08 07:02:45;;;;;;;27.80;16.40;;;2.80;99.90;;;;;;5070121;28;20098;-74
2022/12/08 07:05:10;;;;;;;29.45;17.15;;;2.80;99.90;;;;;;5067487;28;20493;-74
2022/12/08 07:07:36;;;;;;;29.00;16.90;;;2.80;99.90;;;;;;5071145;28;20158;-74
2022/12/08 07:10:02;;;;;;;23.05;15.43;;;2.80;99.90;;;;;;5078943;28;20020;-74
2022/12/08 07:12:27;;;;;;;26.58;16.27;;;2.80;99.90;;;;;;5079071;28;20028;-74
2022/12/08 07:14:53;;;;;;;30.58;16.88;;;2.80;99.90;;;;;;5074365;28;20071;-74
2022/12/08 07:17:19;;;;;;;26.98;15.32;;;2.80;99.90;;;;;;5077233;28;20047;-74
2022/12/08 07:19:44;;;;;;;24.00;15.68;;;2.80;99.90;;;;;;5070161;28;20029;-74
2022/12/08 07:22:10;;;;;;;25.52;16.67;;;2.90;99.90;;;;;;5071327;28;20036;-73
2022/12/08 07:24:35;;;;;;;25.77;16.05;;;2.90;99.90;;;;;;5076428;28;20371;-74
2022/12/08 07:27:01;;;;;;;28.27;16.55;;;2.90;99.90;;;;;;5071078;28;20028;-74
2022/12/08 07:29:27;;;;;;;27.00;16.00;;;2.90;99.90;;;;;;5072113;28;20028;-74
2022/12/08 07:31:52;;;;;;;25.63;15.60;;;2.90;99.90;;;;;;5065365;28;20325;-74
2022/12/08 07:34:18;;;;;;;30.45;16.27;;;2.90;99.90;;;;;;5058242;28;20067;-74
2022/12/08 07:36:43;;;;;;;25.85;16.45;;;2.90;99.90;;;;;;5060721;28;20028;-74
2022/12/08 07:39:09;;;;;;;29.13;16.52;;;2.90;99.90;;;;;;5061638;28;20144;-74
2022/12/08 07:41:35;;;;;;;27.40;15.93;;;3.00;99.90;;;;;;5057609;28;20397;-74
2022/12/08 07:44:00;;;;;;;27.35;16.27;;;2.90;99.90;;;;;;5065503;28;20043;-74
2022/12/08 07:46:26;;;;;;;28.33;17.25;;;3.00;99.90;;;;;;5064428;28;20028;-74
2022/12/08 07:48:53;;;;;;;28.83;16.45;;;3.00;99.90;;;;;;5082960;28;20035;-74
2022/12/08 07:51:19;;;;;;;24.65;16.05;;;3.00;99.90;;;;;;5077273;28;20109;-74
2022/12/08 07:53:47;;;;;;;26.67;15.25;;;3.00;99.90;;;;;;5069645;28;20074;-74
2022/12/08 07:56:13;;;;;;;26.90;15.38;;;3.00;99.90;;;;;;5076516;28;20011;-74
2022/12/08 07:58:39;;;;;;;24.00;14.70;;;3.00;99.90;;;;;;5078360;28;20025;-74
2022/12/08 08:01:05;;;;;;;25.02;15.00;;;3.10;99.90;;;;;;5083930;28;20023;-74
2022/12/08 08:03:31;;;;;;;21.85;13.68;;;3.10;99.90;;;;;;5071181;28;20023;-74
2022/12/08 08:06:04;;;;;;;25.27;15.10;;;3.20;99.90;;;;;;5084831;28;20449;-74
2022/12/08 08:08:30;;;;;;;;;;;3.10;99.90;;;;;;5086795;28;20021;-75
2022/12/08 08:10:56;;;;;;;25.92;14.25;;;3.20;99.90;;;;;;5072204;28;19923;-74
2022/12/08 08:13:22;;;;;;;24.05;13.98;;;3.20;99.90;;;;;;5082860;28;20513;-74
2022/12/08 08:15:47;;;;;;;23.08;15.13;;;3.20;99.90;;;;;;5079212;28;20024;-75
2022/12/08 08:18:13;;;;;;;25.35;15.32;;;3.20;99.90;;;;;;5079277;28;20321;-75
2022/12/08 08:20:39;;;;;;;24.25;15.05;;;3.20;99.90;;;;;;5085551;28;20020;-75
2022/12/08 08:23:05;;;;;;;24.38;15.32;;;3.30;99.90;;;;;;5076771;28;20453;-74
2022/12/08 08:25:31;;;;;;;23.38;13.82;;;3.30;99.90;;;;;;5078063;28;20609;-73
2022/12/08 08:27:56;;;;;;;22.40;13.80;;;3.30;99.90;;;;;;5081601;28;20024;-75
2022/12/08 08:30:22;;;;;;;25.77;14.35;;;3.30;99.90;;;;;;5083826;28;20032;-75
2022/12/08 08:32:48;;;;;;;22.77;14.02;;;3.20;99.90;;;;;;5080369;28;20105;-74
2022/12/08 08:35:14;;;;;;;21.63;12.75;;;3.20;99.90;;;;;;5082463;28;20043;-74
2022/12/08 08:37:40;;;;;;;27.90;16.95;;;3.30;99.90;;;;;;5078844;28;20393;-74
2022/12/08 08:40:06;;;;;;;22.15;14.02;;;3.30;99.90;;;;;;5078325;28;20024;-74
2022/12/08 08:42:31;;;;;;;33.42;18.25;;;3.30;99.90;;;;;;5076687;28;20032;-74
2022/12/08 08:44:57;;;;;;;28.40;15.57;;;3.30;99.90;;;;;;5086111;28;20028;-73
2022/12/08 08:47:23;;;;;;;28.73;17.40;;;3.30;99.90;;;;;;5081690;28;20039;-74
2022/12/08 08:49:48;;;;;;;21.27;12.70;;;3.40;99.90;;;;;;5084951;28;20024;-74
2022/12/08 08:52:14;;;;;;;19.42;12.68;;;3.40;99.90;;;;;;5079040;28;20036;-74
2022/12/08 08:54:40;;;;;;;21.88;13.57;;;3.40;99.90;;;;;;5077745;28;20021;-74
2022/12/08 08:57:05;;;;;;;19.95;13.25;;;3.40;99.90;;;;;;5081442;28;20514;-74
2022/12/08 08:59:31;;;;;;;22.35;12.80;;;3.30;99.90;;;;;;5081235;28;20108;-74
2022/12/08 09:01:57;;;;;;;24.73;13.00;;;3.30;99.90;;;;;;5083676;28;20033;-74
2022/12/08 09:04:24;;;;;;;25.60;12.93;;;3.30;99.90;;;;;;5082747;28;20039;-74
2022/12/08 09:06:50;;;;;;;22.60;12.20;;;3.30;99.90;;;;;;5081252;28;20043;-74
2022/12/08 09:09:15;;;;;;;21.60;13.27;;;3.40;99.90;;;;;;5079331;28;20028;-74
2022/12/08 09:11:42;;;;;;;23.05;14.77;;;3.40;99.90;;;;;;5079903;28;20166;-74
2022/12/08 09:14:11;;;;;;;32.85;18.92;;;3.40;99.90;;;;;;5078896;28;20545;-74
2022/12/08 09:16:37;;;;;;;27.00;16.60;;;3.40;99.90;;;;;;5080028;28;20028;-74
2022/12/08 09:19:02;;;;;;;23.00;14.30;;;3.40;99.90;;;;;;5079783;28;20072;-75
2022/12/08 09:21:28;;;;;;;25.90;14.07;;;3.40;99.90;;;;;;5082543;28;20036;-74
2022/12/08 09:23:57;;;;;;;24.80;16.42;;;3.40;99.90;;;;;;5079973;28;20486;-74
2022/12/08 09:26:24;;;;;;;21.02;14.02;;;3.40;99.90;;;;;;5075375;28;20481;-74
2022/12/08 09:28:50;;;;;;;21.38;13.30;;;3.40;99.90;;;;;;5074604;28;20055;-74
2022/12/08 09:31:17;;;;;;;27.50;15.48;;;3.40;99.90;;;;;;5078926;28;20016;-74
2022/12/08 09:33:42;;;;;;;23.98;14.32;;;3.40;99.90;;;;;;5077695;28;20030;-74
2022/12/08 09:36:09;;;;;;;27.02;15.65;;;3.40;99.90;;;;;;5078138;28;20016;-74
2022/12/08 09:38:35;;;;;;;24.35;14.85;;;3.40;99.90;;;;;;5079722;28;20034;-74
2022/12/08 09:41:04;;;;;;;24.15;13.80;;;3.40;99.90;;;;;;5083920;28;20050;-75
2022/12/08 09:44:26;;;;;;;24.75;14.48;;;3.50;99.90;;;;;;5075413;28;20028;-75
2022/12/08 09:46:54;;;;;;;21.15;13.73;;;3.50;99.90;;;;;;5012802;28;20529;-75
2022/12/08 09:49:25;;;;;;;22.80;14.40;;;3.50;99.90;;;;;;5021169;28;20044;-73
2022/12/08 09:51:51;;;;;;;26.67;15.70;;;3.50;99.90;;;;;;5053241;28;20039;-74
2022/12/08 09:54:31;;;;;;;23.67;14.38;;;3.50;99.90;;;;;;5072118;28;20421;-73
2022/12/08 09:56:59;;;;;;;21.25;14.00;;;3.60;99.90;;;;;;5084045;28;20035;-74
2022/12/08 09:59:32;;;;;;;22.63;14.02;;;3.60;99.90;;;;;;5081330;28;20439;-73
2022/12/08 10:02:00;;;;;;;20.10;13.02;;;3.60;99.90;;;;;;5073260;28;20253;-74
2022/12/08 10:04:33;;;;;;;21.63;13.63;;;3.60;99.90;;;;;;5082326;28;20028;-74
2022/12/08 10:07:06;;;;;;;;;;;3.70;99.90;;;;;;5084167;28;20606;-74
2022/12/08 10:09:55;;;;;;;23.35;13.32;;;3.70;99.90;;;;;;5084693;28;19925;-74
2022/12/08 10:12:36;;;;;;;25.20;14.25;;;3.70;99.90;;;;;;5085415;28;20304;-74
2022/12/08 10:15:23;;;;;;;28.13;14.30;;;3.70;99.90;;;;;;5085822;28;20040;-74
2022/12/08 10:17:50;;;;;;;23.08;13.98;;;3.80;99.90;;;;;;5081420;28;20059;-74
2022/12/08 10:20:22;;;;;;;22.17;13.77;;;3.80;99.90;;;;;;5080065;28;20043;-74
2022/12/08 10:23:10;;;;;;;18.48;12.70;;;3.80;99.90;;;;;;5081206;28;20570;-74
2022/12/08 10:25:48;;;;;;;20.50;13.18;;;3.80;99.90;;;;;;5058280;28;20506;-74
2022/12/08 10:28:14;;;;;;;22.35;14.23;;;3.90;99.90;;;;;;5073036;28;20085;-74
2022/12/08 10:30:40;;;;;;;24.65;14.75;;;3.90;99.90;;;;;;5085873;28;20036;-74
2022/12/08 10:33:16;;;;;;;19.90;12.52;;;3.90;99.90;;;;;;5080385;28;20035;-74
2022/12/08 10:35:48;;;;;;;20.02;12.10;;;4.00;99.90;;;;;;5081783;28;20020;-74
2022/12/08 10:38:25;;;;;;;21.38;12.82;;;4.00;99.90;;;;;;5068974;28;20570;-75
2022/12/08 10:40:56;;;;;;;19.92;12.50;;;4.00;99.90;;;;;;5071794;28;20082;-74
2022/12/08 10:43:24;;;;;;;21.95;13.15;;;4.00;99.90;;;;;;5080118;28;20043;-74
2022/12/08 10:45:50;;;;;;;19.77;11.57;;;4.00;99.90;;;;;;5072811;28;20497;-74
2022/12/08 10:48:20;;;;;;;16.85;11.63;;;4.00;99.90;;;;;;5073079;28;20036;-74
2022/12/08 10:50:51;;;;;;;17.23;11.15;;;4.10;99.90;;;;;;5074900;28;20038;-75
2022/12/08 10:53:25;;;;;;;18.55;11.82;;;4.10;99.90;;;;;;5069957;28;20110;-72
2022/12/08 10:56:05;;;;;;;16.52;10.70;;;4.10;99.90;;;;;;5071596;28;20032;-73
2022/12/08 10:58:41;;;;;;;19.38;11.60;;;4.10;99.90;;;;;;5078288;28;20062;-73
2022/12/08 11:01:13;;;;;;;21.70;11.85;;;4.10;99.90;;;;;;5080365;28;20025;-73
2022/12/08 11:03:55;;;;;;;16.17;10.88;;;4.10;99.90;;;;;;5074633;28;20074;-74
2022/12/08 11:06:33;;;;;;;15.33;10.00;;;4.10;99.90;;;;;;5072016;28;20054;-73
2022/12/08 11:09:05;;;;;;;19.70;11.32;;;4.10;99.90;;;;;;5083403;28;20032;-72
2022/12/08 11:11:50;;;;;;;16.95;11.48;;;4.10;99.90;;;;;;5082461;28;20028;-72
2022/12/08 11:14:22;;;;;;;19.60;11.40;;;4.10;99.90;;;;;;5070514;28;20528;-73
2022/12/08 11:16:50;;;;;;;18.02;11.38;;;4.10;99.90;;;;;;5078873;28;20444;-72
2022/12/08 11:19:17;;;;;;;20.27;12.00;;;4.10;99.90;;;;;;5083597;28;20036;-73
2022/12/08 11:21:43;;;;;;;21.23;11.95;;;4.20;99.90;;;;;;5074358;28;20036;-73
2022/12/08 11:24:14;;;;;;;16.27;11.55;;;4.20;99.90;;;;;;5073446;28;20054;-73
2022/12/08 11:26:47;;;;;;;19.05;11.70;;;4.20;99.90;;;;;;5077271;28;20765;-73
2022/12/08 11:29:13;;;;;;;17.55;11.60;;;4.20;99.90;;;;;;5077918;28;20196;-72
2022/12/08 11:31:48;;;;;;;15.30;10.30;;;4.30;99.90;;;;;;5086478;28;20390;-73
2022/12/08 11:34:22;;;;;;;9.88;6.43;;;4.30;99.90;;;;;;5073127;28;20029;-73
2022/12/08 11:36:50;;;;;;;9.27;5.80;;;4.30;99.90;;;;;;5068840;28;20114;-73
2022/12/08 11:39:16;;;;;;;9.07;5.75;;;4.30;99.90;;;;;;5079551;28;20040;-73
2022/12/08 11:41:45;;;;;;;8.80;6.10;;;4.30;99.90;;;;;;5085805;28;20043;-73
2022/12/08 11:44:23;;;;;;;8.50;5.72;;;4.30;99.90;;;;;;5076362;28;20041;-74
2022/12/08 11:46:58;;;;;;;6.50;5.00;;;4.30;99.90;;;;;;5080252;28;20036;-73
2022/12/08 11:49:39;;;;;;;7.65;6.00;;;4.40;99.90;;;;;;5072995;28;20028;-73
2022/12/08 11:52:25;;;;;;;6.70;4.88;;;4.40;99.90;;;;;;5072212;28;20602;-73
2022/12/08 11:55:32;;;;;;;5.78;4.72;;;4.40;99.90;;;;;;5086529;28;20467;-73
2022/12/08 11:58:19;;;;;;;7.45;4.68;;;4.40;99.90;;;;;;5078394;28;20059;-73
2022/12/08 12:00:44;;;;;;;9.63;4.70;;;4.40;99.90;;;;;;5071876;28;20024;-73
2022/12/08 12:03:31;;;;;;;6.80;5.07;;;4.30;99.90;;;;;;5083396;28;20031;-73
2022/12/08 12:06:22;;;;;;;7.70;5.80;;;4.30;99.90;;;;;;5090303;28;20468;-73
2022/12/08 12:09:09;;;;;;;8.05;4.75;;;4.30;99.90;;;;;;4720100;28;10000376;-75
2022/12/08 12:12:15;;;;;;;4.80;3.90;;;4.30;99.90;;;;;;5069750;28;20100;-74
2022/12/08 12:15:23;;;;;;;5.60;3.42;;;4.30;99.90;;;;;;5068477;28;20027;-75
2022/12/08 12:18:17;;;;;;;4.88;3.15;;;4.30;99.90;;;;;;5068871;28;20039;-72
2022/12/08 12:21:03;;;;;;;4.82;3.13;;;4.30;99.90;;;;;;5077944;28;20376;-74
2022/12/08 12:23:42;;;;;;;5.25;3.60;;;4.40;99.90;;;;;;5067864;28;20515;-74
2022/12/08 12:26:17;;;;;;;11.43;5.60;;;4.40;99.90;;;;;;5068266;28;20112;-73
2022/12/08 12:28:51;;;;;;;8.25;5.00;;;4.40;99.90;;;;;;5072450;28;20571;-73
2022/12/08 12:31:21;;;;;;;17.88;9.40;;;4.40;99.90;;;;;;5071280;28;20167;-72
2022/12/08 12:33:48;;;;;;;8.32;5.20;;;4.40;99.90;;;;;;5069439;28;20381;-72
2022/12/08 12:36:15;;;;;;;5.78;4.68;;;4.40;99.90;;;;;;5078781;28;20065;-71
2022/12/08 12:39:06;;;;;;;6.65;4.00;;;4.40;99.90;;;;;;5078511;28;20409;-72
2022/12/08 12:41:36;;;;;;;6.70;5.00;;;4.40;99.90;;;;;;5074337;28;20027;-71
2022/12/08 12:44:10;;;;;;;4.13;3.70;;;4.40;99.90;;;;;;5069343;28;20265;-71
2022/12/08 12:46:47;;;;;;;6.35;4.53;;;4.40;99.90;;;;;;5075812;28;20436;-71
2022/12/08 12:49:38;;;;;;;4.50;3.70;;;4.40;99.90;;;;;;5071995;28;20059;-71
2022/12/08 12:52:15;;;;;;;3.72;3.20;;;4.40;99.90;;;;;;5072351;28;20144;-73
2022/12/08 12:54:49;;;;;;;4.30;3.30;;;4.40;99.90;;;;;;5066759;28;20039;-73
2022/12/08 12:57:18;;;;;;;8.60;4.68;;;4.40;99.90;;;;;;5070550;28;20411;-72
2022/12/08 13:00:03;;;;;;;4.53;3.22;;;4.40;99.90;;;;;;5072767;28;20444;-72
2022/12/08 13:03:00;;;;;;;4.38;2.80;;;4.40;99.90;;;;;;5067282;28;20032;-72